<?xml version="1.0" encoding="UTF-8" standalone="no" ?>
<gpx xmlns="http://www.topografix.com/GPX/1/1" xmlns:xsi="http://www.w3.org/2001/XMLSchema-instance" xsi:schemaLocation="http://www.topografix.com/GPX/1/1 http://www.topografix.com/GPX/1/1/gpx.xsd" version="1.1" creator="VisuGPX - https://www.visugpx.com">
  <metadata>
    <name>poigny</name>
    <desc><![CDATA[petite rando niveau confirmé]]></desc>
  </metadata>
  <trk>
    <name><![CDATA[2016-01-17 13:19]]></name>
    <desc><![CDATA[<p>Temps de départ: 01/17/2016 13:19</p><p>Temps d'arrivée: 01/17/2016 15:12</p><p>Distance: 7,1 km (01:53)</p><p>Temps déplacement: 01:24</p><p>Vitesse moyenne: 3,8 km/h</p><p>Vitesse moyenne mouvement: 5 km/h</p><p>Vitess Max.: 13,1km/h</p><p>Altitude minimale: 117 m</p><p>Altitude maximale: 174 m</p><p>Vitesse d'élévation: 285,5 m/h</p><p>Vitesse de descente: -286,6 m/h</p><p>Gain Altitude: 244 m</p><p>Perte Altitude: -232 m</p><p>Temps d'élévation: 00:51</p><p>Temps de descente: 00:48</p><hr align="center" width="480" style="height: 2px; width: 517px"/>]]></desc>
    <trkseg>
      <trkpt lat="48.66679" lon="1.71709">
        <ele>117.73</ele>
        <time>2016-01-17T12:19:05Z</time>
      </trkpt>
      <trkpt lat="48.6666" lon="1.71707">
        <ele>118.94</ele>
        <time>2016-01-17T12:19:28Z</time>
      </trkpt>
      <trkpt lat="48.66642" lon="1.71704">
        <ele>121.71</ele>
        <time>2016-01-17T12:19:46Z</time>
      </trkpt>
      <trkpt lat="48.66624" lon="1.71716">
        <ele>124.54</ele>
        <time>2016-01-17T12:19:59Z</time>
      </trkpt>
      <trkpt lat="48.66606" lon="1.71724">
        <ele>125.73</ele>
        <time>2016-01-17T12:20:13Z</time>
      </trkpt>
      <trkpt lat="48.66587" lon="1.71728">
        <ele>123.54</ele>
        <time>2016-01-17T12:20:28Z</time>
      </trkpt>
      <trkpt lat="48.6657" lon="1.71735">
        <ele>127.73</ele>
        <time>2016-01-17T12:21:03Z</time>
      </trkpt>
      <trkpt lat="48.66551" lon="1.71743">
        <ele>123.94</ele>
        <time>2016-01-17T12:21:51Z</time>
      </trkpt>
      <trkpt lat="48.66533" lon="1.71751">
        <ele>127.7</ele>
        <time>2016-01-17T12:22:04Z</time>
      </trkpt>
      <trkpt lat="48.66516" lon="1.71764">
        <ele>129.53</ele>
        <time>2016-01-17T12:22:17Z</time>
      </trkpt>
      <trkpt lat="48.66498" lon="1.71772">
        <ele>125.73</ele>
        <time>2016-01-17T12:22:33Z</time>
      </trkpt>
      <trkpt lat="48.6648" lon="1.7178">
        <ele>130.59</ele>
        <time>2016-01-17T12:22:47Z</time>
      </trkpt>
      <trkpt lat="48.66461" lon="1.71785">
        <ele>131.6</ele>
        <time>2016-01-17T12:23:22Z</time>
      </trkpt>
      <trkpt lat="48.66445" lon="1.71799">
        <ele>135.61</ele>
        <time>2016-01-17T12:23:33Z</time>
      </trkpt>
      <trkpt lat="48.66426" lon="1.718">
        <ele>134.47</ele>
        <time>2016-01-17T12:23:46Z</time>
      </trkpt>
      <trkpt lat="48.66409" lon="1.7181">
        <ele>126.98</ele>
        <time>2016-01-17T12:23:58Z</time>
      </trkpt>
      <trkpt lat="48.66391" lon="1.71815">
        <ele>128.53</ele>
        <time>2016-01-17T12:24:35Z</time>
      </trkpt>
      <trkpt lat="48.66373" lon="1.71822">
        <ele>121.97</ele>
        <time>2016-01-17T12:24:49Z</time>
      </trkpt>
      <trkpt lat="48.66356" lon="1.71833">
        <ele>118.44</ele>
        <time>2016-01-17T12:24:59Z</time>
      </trkpt>
      <trkpt lat="48.66338" lon="1.71842">
        <ele>123.77</ele>
        <time>2016-01-17T12:25:14Z</time>
      </trkpt>
      <trkpt lat="48.6632" lon="1.71846">
        <ele>126.51</ele>
        <time>2016-01-17T12:25:27Z</time>
      </trkpt>
      <trkpt lat="48.66302" lon="1.71852">
        <ele>122.77</ele>
        <time>2016-01-17T12:25:42Z</time>
      </trkpt>
      <trkpt lat="48.66284" lon="1.7186">
        <ele>121.68</ele>
        <time>2016-01-17T12:25:56Z</time>
      </trkpt>
      <trkpt lat="48.66268" lon="1.71877">
        <ele>142.73</ele>
        <time>2016-01-17T12:27:40Z</time>
      </trkpt>
      <trkpt lat="48.66249" lon="1.71883">
        <ele>145.58</ele>
        <time>2016-01-17T12:27:50Z</time>
      </trkpt>
      <trkpt lat="48.66231" lon="1.71893">
        <ele>138.71</ele>
        <time>2016-01-17T12:27:59Z</time>
      </trkpt>
      <trkpt lat="48.66212" lon="1.71897">
        <ele>126.74</ele>
        <time>2016-01-17T12:28:12Z</time>
      </trkpt>
      <trkpt lat="48.66194" lon="1.71903">
        <ele>123.54</ele>
        <time>2016-01-17T12:28:27Z</time>
      </trkpt>
      <trkpt lat="48.66177" lon="1.71911">
        <ele>122.88</ele>
        <time>2016-01-17T12:28:43Z</time>
      </trkpt>
      <trkpt lat="48.66159" lon="1.71916">
        <ele>122.57</ele>
        <time>2016-01-17T12:28:55Z</time>
      </trkpt>
      <trkpt lat="48.6614" lon="1.71918">
        <ele>125.91</ele>
        <time>2016-01-17T12:29:10Z</time>
      </trkpt>
      <trkpt lat="48.66121" lon="1.71923">
        <ele>124.95</ele>
        <time>2016-01-17T12:29:25Z</time>
      </trkpt>
      <trkpt lat="48.66103" lon="1.71932">
        <ele>123.74</ele>
        <time>2016-01-17T12:29:41Z</time>
      </trkpt>
      <trkpt lat="48.66085" lon="1.7194">
        <ele>127.74</ele>
        <time>2016-01-17T12:29:54Z</time>
      </trkpt>
      <trkpt lat="48.66067" lon="1.71946">
        <ele>130.69</ele>
        <time>2016-01-17T12:30:10Z</time>
      </trkpt>
      <trkpt lat="48.66049" lon="1.71951">
        <ele>128.71</ele>
        <time>2016-01-17T12:30:26Z</time>
      </trkpt>
      <trkpt lat="48.66036" lon="1.71972">
        <ele>133.55</ele>
        <time>2016-01-17T12:31:20Z</time>
      </trkpt>
      <trkpt lat="48.66025" lon="1.71995">
        <ele>130.89</ele>
        <time>2016-01-17T12:32:01Z</time>
      </trkpt>
      <trkpt lat="48.66017" lon="1.72019">
        <ele>133.09</ele>
        <time>2016-01-17T12:32:14Z</time>
      </trkpt>
      <trkpt lat="48.66016" lon="1.72047">
        <ele>140.49</ele>
        <time>2016-01-17T12:32:30Z</time>
      </trkpt>
      <trkpt lat="48.66022" lon="1.72073">
        <ele>140.85</ele>
        <time>2016-01-17T12:32:45Z</time>
      </trkpt>
      <trkpt lat="48.6603" lon="1.72098">
        <ele>138.45</ele>
        <time>2016-01-17T12:33:18Z</time>
      </trkpt>
      <trkpt lat="48.66041" lon="1.72122">
        <ele>137.75</ele>
        <time>2016-01-17T12:33:31Z</time>
      </trkpt>
      <trkpt lat="48.6605" lon="1.72147">
        <ele>140.06</ele>
        <time>2016-01-17T12:33:56Z</time>
      </trkpt>
      <trkpt lat="48.66063" lon="1.72167">
        <ele>140.66</ele>
        <time>2016-01-17T12:34:29Z</time>
      </trkpt>
      <trkpt lat="48.66075" lon="1.72187">
        <ele>133.73</ele>
        <time>2016-01-17T12:35:37Z</time>
      </trkpt>
      <trkpt lat="48.6609" lon="1.72207">
        <ele>132.54</ele>
        <time>2016-01-17T12:35:48Z</time>
      </trkpt>
      <trkpt lat="48.66107" lon="1.72221">
        <ele>139.52</ele>
        <time>2016-01-17T12:36:00Z</time>
      </trkpt>
      <trkpt lat="48.66121" lon="1.72238">
        <ele>136.39</ele>
        <time>2016-01-17T12:36:18Z</time>
      </trkpt>
      <trkpt lat="48.66118" lon="1.72266">
        <ele>140.7</ele>
        <time>2016-01-17T12:36:36Z</time>
      </trkpt>
      <trkpt lat="48.66108" lon="1.7229">
        <ele>142.69</ele>
        <time>2016-01-17T12:36:53Z</time>
      </trkpt>
      <trkpt lat="48.66095" lon="1.72313">
        <ele>143.7</ele>
        <time>2016-01-17T12:37:05Z</time>
      </trkpt>
      <trkpt lat="48.66084" lon="1.72336">
        <ele>138.3</ele>
        <time>2016-01-17T12:37:19Z</time>
      </trkpt>
      <trkpt lat="48.66072" lon="1.72358">
        <ele>134.59</ele>
        <time>2016-01-17T12:37:32Z</time>
      </trkpt>
      <trkpt lat="48.66063" lon="1.72383">
        <ele>135.94</ele>
        <time>2016-01-17T12:38:02Z</time>
      </trkpt>
      <trkpt lat="48.66055" lon="1.72408">
        <ele>136.93</ele>
        <time>2016-01-17T12:38:08Z</time>
      </trkpt>
      <trkpt lat="48.66045" lon="1.7243">
        <ele>135.89</ele>
        <time>2016-01-17T12:38:23Z</time>
      </trkpt>
      <trkpt lat="48.66032" lon="1.72451">
        <ele>138.73</ele>
        <time>2016-01-17T12:38:37Z</time>
      </trkpt>
      <trkpt lat="48.66018" lon="1.72469">
        <ele>145.74</ele>
        <time>2016-01-17T12:38:53Z</time>
      </trkpt>
      <trkpt lat="48.66008" lon="1.72493">
        <ele>142.73</ele>
        <time>2016-01-17T12:39:08Z</time>
      </trkpt>
      <trkpt lat="48.65995" lon="1.72514">
        <ele>147.38</ele>
        <time>2016-01-17T12:39:25Z</time>
      </trkpt>
      <trkpt lat="48.65994" lon="1.72541">
        <ele>147.7</ele>
        <time>2016-01-17T12:39:47Z</time>
      </trkpt>
      <trkpt lat="48.65994" lon="1.72569">
        <ele>149.76</ele>
        <time>2016-01-17T12:39:59Z</time>
      </trkpt>
      <trkpt lat="48.65994" lon="1.72596">
        <ele>147.69</ele>
        <time>2016-01-17T12:40:13Z</time>
      </trkpt>
      <trkpt lat="48.65992" lon="1.72625">
        <ele>146.97</ele>
        <time>2016-01-17T12:40:30Z</time>
      </trkpt>
      <trkpt lat="48.65991" lon="1.72654">
        <ele>153.71</ele>
        <time>2016-01-17T12:40:47Z</time>
      </trkpt>
      <trkpt lat="48.65987" lon="1.72681">
        <ele>156.5</ele>
        <time>2016-01-17T12:41:03Z</time>
      </trkpt>
      <trkpt lat="48.6598" lon="1.72708">
        <ele>157.33</ele>
        <time>2016-01-17T12:41:18Z</time>
      </trkpt>
      <trkpt lat="48.65969" lon="1.7273">
        <ele>152</ele>
        <time>2016-01-17T12:41:31Z</time>
      </trkpt>
      <trkpt lat="48.65956" lon="1.7275">
        <ele>156.76</ele>
        <time>2016-01-17T12:42:33Z</time>
      </trkpt>
      <trkpt lat="48.6594" lon="1.72764">
        <ele>150.71</ele>
        <time>2016-01-17T12:42:44Z</time>
      </trkpt>
      <trkpt lat="48.65929" lon="1.72788">
        <ele>146.24</ele>
        <time>2016-01-17T12:42:52Z</time>
      </trkpt>
      <trkpt lat="48.65923" lon="1.72817">
        <ele>143.14</ele>
        <time>2016-01-17T12:42:56Z</time>
      </trkpt>
      <trkpt lat="48.65936" lon="1.72797">
        <ele>143.4</ele>
        <time>2016-01-17T12:43:08Z</time>
      </trkpt>
      <trkpt lat="48.65948" lon="1.72817">
        <ele>153.26</ele>
        <time>2016-01-17T12:43:38Z</time>
      </trkpt>
      <trkpt lat="48.65957" lon="1.72841">
        <ele>156.52</ele>
        <time>2016-01-17T12:44:05Z</time>
      </trkpt>
      <trkpt lat="48.65969" lon="1.72862">
        <ele>163.7</ele>
        <time>2016-01-17T12:44:13Z</time>
      </trkpt>
      <trkpt lat="48.65982" lon="1.72882">
        <ele>159.25</ele>
        <time>2016-01-17T12:45:51Z</time>
      </trkpt>
      <trkpt lat="48.65994" lon="1.72902">
        <ele>160.53</ele>
        <time>2016-01-17T12:46:44Z</time>
      </trkpt>
      <trkpt lat="48.66008" lon="1.72921">
        <ele>166.41</ele>
        <time>2016-01-17T12:47:23Z</time>
      </trkpt>
      <trkpt lat="48.66018" lon="1.72945">
        <ele>169.66</ele>
        <time>2016-01-17T12:47:34Z</time>
      </trkpt>
      <trkpt lat="48.6603" lon="1.72968">
        <ele>161.72</ele>
        <time>2016-01-17T12:47:48Z</time>
      </trkpt>
      <trkpt lat="48.66045" lon="1.72986">
        <ele>161.73</ele>
        <time>2016-01-17T12:47:59Z</time>
      </trkpt>
      <trkpt lat="48.66057" lon="1.73007">
        <ele>165.72</ele>
        <time>2016-01-17T12:48:25Z</time>
      </trkpt>
      <trkpt lat="48.66066" lon="1.73031">
        <ele>164.56</ele>
        <time>2016-01-17T12:48:43Z</time>
      </trkpt>
      <trkpt lat="48.6608" lon="1.73051">
        <ele>171.99</ele>
        <time>2016-01-17T12:49:08Z</time>
      </trkpt>
      <trkpt lat="48.66091" lon="1.73074">
        <ele>157.93</ele>
        <time>2016-01-17T12:49:23Z</time>
      </trkpt>
      <trkpt lat="48.66103" lon="1.73094">
        <ele>168.81</ele>
        <time>2016-01-17T12:50:01Z</time>
      </trkpt>
      <trkpt lat="48.66118" lon="1.73109">
        <ele>163.75</ele>
        <time>2016-01-17T12:50:12Z</time>
      </trkpt>
      <trkpt lat="48.66106" lon="1.7313">
        <ele>154.51</ele>
        <time>2016-01-17T12:51:37Z</time>
      </trkpt>
      <trkpt lat="48.66093" lon="1.73151">
        <ele>148.75</ele>
        <time>2016-01-17T12:51:53Z</time>
      </trkpt>
      <trkpt lat="48.66079" lon="1.73167">
        <ele>148.53</ele>
        <time>2016-01-17T12:52:22Z</time>
      </trkpt>
      <trkpt lat="48.66067" lon="1.7319">
        <ele>153.34</ele>
        <time>2016-01-17T12:52:36Z</time>
      </trkpt>
      <trkpt lat="48.66074" lon="1.73218">
        <ele>151.78</ele>
        <time>2016-01-17T12:53:13Z</time>
      </trkpt>
      <trkpt lat="48.66084" lon="1.73244">
        <ele>152.27</ele>
        <time>2016-01-17T12:53:19Z</time>
      </trkpt>
      <trkpt lat="48.66102" lon="1.73255">
        <ele>154.13</ele>
        <time>2016-01-17T12:53:29Z</time>
      </trkpt>
      <trkpt lat="48.66108" lon="1.73281">
        <ele>153.74</ele>
        <time>2016-01-17T12:53:49Z</time>
      </trkpt>
      <trkpt lat="48.6612" lon="1.73302">
        <ele>156.9</ele>
        <time>2016-01-17T12:54:04Z</time>
      </trkpt>
      <trkpt lat="48.66131" lon="1.73325">
        <ele>163.55</ele>
        <time>2016-01-17T12:54:19Z</time>
      </trkpt>
      <trkpt lat="48.6614" lon="1.73349">
        <ele>156.11</ele>
        <time>2016-01-17T12:54:34Z</time>
      </trkpt>
      <trkpt lat="48.66151" lon="1.7337">
        <ele>156.8</ele>
        <time>2016-01-17T12:54:49Z</time>
      </trkpt>
      <trkpt lat="48.66164" lon="1.73393">
        <ele>155.15</ele>
        <time>2016-01-17T12:55:43Z</time>
      </trkpt>
      <trkpt lat="48.66177" lon="1.73413">
        <ele>156.48</ele>
        <time>2016-01-17T12:55:53Z</time>
      </trkpt>
      <trkpt lat="48.66188" lon="1.73438">
        <ele>154.95</ele>
        <time>2016-01-17T12:56:23Z</time>
      </trkpt>
      <trkpt lat="48.66199" lon="1.73459">
        <ele>151.75</ele>
        <time>2016-01-17T12:56:39Z</time>
      </trkpt>
      <trkpt lat="48.66211" lon="1.73481">
        <ele>152.74</ele>
        <time>2016-01-17T12:57:01Z</time>
      </trkpt>
      <trkpt lat="48.66221" lon="1.73505">
        <ele>160.58</ele>
        <time>2016-01-17T12:57:18Z</time>
      </trkpt>
      <trkpt lat="48.66233" lon="1.73528">
        <ele>160.66</ele>
        <time>2016-01-17T12:57:35Z</time>
      </trkpt>
      <trkpt lat="48.66247" lon="1.73547">
        <ele>162.75</ele>
        <time>2016-01-17T12:57:49Z</time>
      </trkpt>
      <trkpt lat="48.66259" lon="1.73569">
        <ele>160.75</ele>
        <time>2016-01-17T12:58:04Z</time>
      </trkpt>
      <trkpt lat="48.66273" lon="1.73588">
        <ele>160.74</ele>
        <time>2016-01-17T12:58:20Z</time>
      </trkpt>
      <trkpt lat="48.66277" lon="1.73615">
        <ele>159.7</ele>
        <time>2016-01-17T12:58:37Z</time>
      </trkpt>
      <trkpt lat="48.66265" lon="1.73636">
        <ele>161.72</ele>
        <time>2016-01-17T12:58:50Z</time>
      </trkpt>
      <trkpt lat="48.66252" lon="1.73655">
        <ele>161.7</ele>
        <time>2016-01-17T12:59:02Z</time>
      </trkpt>
      <trkpt lat="48.66239" lon="1.73674">
        <ele>166</ele>
        <time>2016-01-17T12:59:17Z</time>
      </trkpt>
      <trkpt lat="48.66226" lon="1.73693">
        <ele>159.66</ele>
        <time>2016-01-17T12:59:48Z</time>
      </trkpt>
      <trkpt lat="48.6621" lon="1.73708">
        <ele>163.45</ele>
        <time>2016-01-17T12:59:58Z</time>
      </trkpt>
      <trkpt lat="48.66196" lon="1.73726">
        <ele>154.85</ele>
        <time>2016-01-17T13:00:21Z</time>
      </trkpt>
      <trkpt lat="48.66183" lon="1.73748">
        <ele>171.29</ele>
        <time>2016-01-17T13:00:37Z</time>
      </trkpt>
      <trkpt lat="48.66166" lon="1.73761">
        <ele>165.26</ele>
        <time>2016-01-17T13:00:48Z</time>
      </trkpt>
      <trkpt lat="48.66154" lon="1.73782">
        <ele>172.53</ele>
        <time>2016-01-17T13:01:05Z</time>
      </trkpt>
      <trkpt lat="48.66139" lon="1.738">
        <ele>169.79</ele>
        <time>2016-01-17T13:01:20Z</time>
      </trkpt>
      <trkpt lat="48.66125" lon="1.73818">
        <ele>168.55</ele>
        <time>2016-01-17T13:01:34Z</time>
      </trkpt>
      <trkpt lat="48.6611" lon="1.73833">
        <ele>164.91</ele>
        <time>2016-01-17T13:01:51Z</time>
      </trkpt>
      <trkpt lat="48.66095" lon="1.73852">
        <ele>173.53</ele>
        <time>2016-01-17T13:02:08Z</time>
      </trkpt>
      <trkpt lat="48.66084" lon="1.73874">
        <ele>171.93</ele>
        <time>2016-01-17T13:02:23Z</time>
      </trkpt>
      <trkpt lat="48.66069" lon="1.73893">
        <ele>172.74</ele>
        <time>2016-01-17T13:03:02Z</time>
      </trkpt>
      <trkpt lat="48.66053" lon="1.73911">
        <ele>169.9</ele>
        <time>2016-01-17T13:03:11Z</time>
      </trkpt>
      <trkpt lat="48.6604" lon="1.7393">
        <ele>161.78</ele>
        <time>2016-01-17T13:03:27Z</time>
      </trkpt>
      <trkpt lat="48.66024" lon="1.73946">
        <ele>165.06</ele>
        <time>2016-01-17T13:03:42Z</time>
      </trkpt>
      <trkpt lat="48.66012" lon="1.73965">
        <ele>162.66</ele>
        <time>2016-01-17T13:03:52Z</time>
      </trkpt>
      <trkpt lat="48.65996" lon="1.73982">
        <ele>159.73</ele>
        <time>2016-01-17T13:04:05Z</time>
      </trkpt>
      <trkpt lat="48.65985" lon="1.74005">
        <ele>162.97</ele>
        <time>2016-01-17T13:04:25Z</time>
      </trkpt>
      <trkpt lat="48.65994" lon="1.7403">
        <ele>162.51</ele>
        <time>2016-01-17T13:04:42Z</time>
      </trkpt>
      <trkpt lat="48.6601" lon="1.74044">
        <ele>168.73</ele>
        <time>2016-01-17T13:04:57Z</time>
      </trkpt>
      <trkpt lat="48.66022" lon="1.74067">
        <ele>166.77</ele>
        <time>2016-01-17T13:05:11Z</time>
      </trkpt>
      <trkpt lat="48.66032" lon="1.74092">
        <ele>163.06</ele>
        <time>2016-01-17T13:05:27Z</time>
      </trkpt>
      <trkpt lat="48.66043" lon="1.74115">
        <ele>165.45</ele>
        <time>2016-01-17T13:05:44Z</time>
      </trkpt>
      <trkpt lat="48.66049" lon="1.74141">
        <ele>165.52</ele>
        <time>2016-01-17T13:05:59Z</time>
      </trkpt>
      <trkpt lat="48.66063" lon="1.7416">
        <ele>165.27</ele>
        <time>2016-01-17T13:06:12Z</time>
      </trkpt>
      <trkpt lat="48.66077" lon="1.74178">
        <ele>161.84</ele>
        <time>2016-01-17T13:06:24Z</time>
      </trkpt>
      <trkpt lat="48.6609" lon="1.74197">
        <ele>162.83</ele>
        <time>2016-01-17T13:06:40Z</time>
      </trkpt>
      <trkpt lat="48.66102" lon="1.74175">
        <ele>161.73</ele>
        <time>2016-01-17T13:06:59Z</time>
      </trkpt>
      <trkpt lat="48.66113" lon="1.7415">
        <ele>169.49</ele>
        <time>2016-01-17T13:07:16Z</time>
      </trkpt>
      <trkpt lat="48.66124" lon="1.74125">
        <ele>168.48</ele>
        <time>2016-01-17T13:07:27Z</time>
      </trkpt>
      <trkpt lat="48.66135" lon="1.74101">
        <ele>166.81</ele>
        <time>2016-01-17T13:07:45Z</time>
      </trkpt>
      <trkpt lat="48.66143" lon="1.74076">
        <ele>161.3</ele>
        <time>2016-01-17T13:08:03Z</time>
      </trkpt>
      <trkpt lat="48.66153" lon="1.74054">
        <ele>163.92</ele>
        <time>2016-01-17T13:08:19Z</time>
      </trkpt>
      <trkpt lat="48.66167" lon="1.74035">
        <ele>166.78</ele>
        <time>2016-01-17T13:08:32Z</time>
      </trkpt>
      <trkpt lat="48.66177" lon="1.74012">
        <ele>168.49</ele>
        <time>2016-01-17T13:08:42Z</time>
      </trkpt>
      <trkpt lat="48.66194" lon="1.73998">
        <ele>168.95</ele>
        <time>2016-01-17T13:09:00Z</time>
      </trkpt>
      <trkpt lat="48.66211" lon="1.74006">
        <ele>168.55</ele>
        <time>2016-01-17T13:09:17Z</time>
      </trkpt>
      <trkpt lat="48.66229" lon="1.74013">
        <ele>171.79</ele>
        <time>2016-01-17T13:09:30Z</time>
      </trkpt>
      <trkpt lat="48.66246" lon="1.74022">
        <ele>169.53</ele>
        <time>2016-01-17T13:09:44Z</time>
      </trkpt>
      <trkpt lat="48.66264" lon="1.74028">
        <ele>172.73</ele>
        <time>2016-01-17T13:09:55Z</time>
      </trkpt>
      <trkpt lat="48.66283" lon="1.74031">
        <ele>169.71</ele>
        <time>2016-01-17T13:10:13Z</time>
      </trkpt>
      <trkpt lat="48.66302" lon="1.74034">
        <ele>162.81</ele>
        <time>2016-01-17T13:10:28Z</time>
      </trkpt>
      <trkpt lat="48.66321" lon="1.74031">
        <ele>167.55</ele>
        <time>2016-01-17T13:11:53Z</time>
      </trkpt>
      <trkpt lat="48.66333" lon="1.74007">
        <ele>160.5</ele>
        <time>2016-01-17T13:12:08Z</time>
      </trkpt>
      <trkpt lat="48.6634" lon="1.73981">
        <ele>165.66</ele>
        <time>2016-01-17T13:12:25Z</time>
      </trkpt>
      <trkpt lat="48.66351" lon="1.73955">
        <ele>168.32</ele>
        <time>2016-01-17T13:12:47Z</time>
      </trkpt>
      <trkpt lat="48.66366" lon="1.7394">
        <ele>166.32</ele>
        <time>2016-01-17T13:12:59Z</time>
      </trkpt>
      <trkpt lat="48.66375" lon="1.73917">
        <ele>168.92</ele>
        <time>2016-01-17T13:13:21Z</time>
      </trkpt>
      <trkpt lat="48.66388" lon="1.73895">
        <ele>163.72</ele>
        <time>2016-01-17T13:13:41Z</time>
      </trkpt>
      <trkpt lat="48.66399" lon="1.73872">
        <ele>157.58</ele>
        <time>2016-01-17T13:13:58Z</time>
      </trkpt>
      <trkpt lat="48.6641" lon="1.73849">
        <ele>164.97</ele>
        <time>2016-01-17T13:14:14Z</time>
      </trkpt>
      <trkpt lat="48.66421" lon="1.73826">
        <ele>158.67</ele>
        <time>2016-01-17T13:14:29Z</time>
      </trkpt>
      <trkpt lat="48.66434" lon="1.73803">
        <ele>149.83</ele>
        <time>2016-01-17T13:14:43Z</time>
      </trkpt>
      <trkpt lat="48.66447" lon="1.73784">
        <ele>147.58</ele>
        <time>2016-01-17T13:14:59Z</time>
      </trkpt>
      <trkpt lat="48.66458" lon="1.73762">
        <ele>153.06</ele>
        <time>2016-01-17T13:15:15Z</time>
      </trkpt>
      <trkpt lat="48.6647" lon="1.73742">
        <ele>149.11</ele>
        <time>2016-01-17T13:15:35Z</time>
      </trkpt>
      <trkpt lat="48.66481" lon="1.73718">
        <ele>145.78</ele>
        <time>2016-01-17T13:15:49Z</time>
      </trkpt>
      <trkpt lat="48.6649" lon="1.73694">
        <ele>149.35</ele>
        <time>2016-01-17T13:16:03Z</time>
      </trkpt>
      <trkpt lat="48.66502" lon="1.73672">
        <ele>148.08</ele>
        <time>2016-01-17T13:16:17Z</time>
      </trkpt>
      <trkpt lat="48.66513" lon="1.73649">
        <ele>148.78</ele>
        <time>2016-01-17T13:16:42Z</time>
      </trkpt>
      <trkpt lat="48.66526" lon="1.7363">
        <ele>150.94</ele>
        <time>2016-01-17T13:16:56Z</time>
      </trkpt>
      <trkpt lat="48.66538" lon="1.73607">
        <ele>148.34</ele>
        <time>2016-01-17T13:17:10Z</time>
      </trkpt>
      <trkpt lat="48.66546" lon="1.73581">
        <ele>150.33</ele>
        <time>2016-01-17T13:17:26Z</time>
      </trkpt>
      <trkpt lat="48.66558" lon="1.7356">
        <ele>149.7</ele>
        <time>2016-01-17T13:17:43Z</time>
      </trkpt>
      <trkpt lat="48.6657" lon="1.73537">
        <ele>142.94</ele>
        <time>2016-01-17T13:17:55Z</time>
      </trkpt>
      <trkpt lat="48.6659" lon="1.73535">
        <ele>144.69</ele>
        <time>2016-01-17T13:18:14Z</time>
      </trkpt>
      <trkpt lat="48.66601" lon="1.73558">
        <ele>145.51</ele>
        <time>2016-01-17T13:18:30Z</time>
      </trkpt>
      <trkpt lat="48.66609" lon="1.73584">
        <ele>148.59</ele>
        <time>2016-01-17T13:18:45Z</time>
      </trkpt>
      <trkpt lat="48.66626" lon="1.73593">
        <ele>148.66</ele>
        <time>2016-01-17T13:19:06Z</time>
      </trkpt>
      <trkpt lat="48.66644" lon="1.73587">
        <ele>150.85</ele>
        <time>2016-01-17T13:19:26Z</time>
      </trkpt>
      <trkpt lat="48.66659" lon="1.73604">
        <ele>158.68</ele>
        <time>2016-01-17T13:19:50Z</time>
      </trkpt>
      <trkpt lat="48.66669" lon="1.73627">
        <ele>163.65</ele>
        <time>2016-01-17T13:20:05Z</time>
      </trkpt>
      <trkpt lat="48.66676" lon="1.73653">
        <ele>167.69</ele>
        <time>2016-01-17T13:20:25Z</time>
      </trkpt>
      <trkpt lat="48.66682" lon="1.7368">
        <ele>168.15</ele>
        <time>2016-01-17T13:20:42Z</time>
      </trkpt>
      <trkpt lat="48.66686" lon="1.73707">
        <ele>168.87</ele>
        <time>2016-01-17T13:20:59Z</time>
      </trkpt>
      <trkpt lat="48.66701" lon="1.73722">
        <ele>172.68</ele>
        <time>2016-01-17T13:21:15Z</time>
      </trkpt>
      <trkpt lat="48.66719" lon="1.7373">
        <ele>171.7</ele>
        <time>2016-01-17T13:21:26Z</time>
      </trkpt>
      <trkpt lat="48.66736" lon="1.73741">
        <ele>171.34</ele>
        <time>2016-01-17T13:21:43Z</time>
      </trkpt>
      <trkpt lat="48.66753" lon="1.73753">
        <ele>169.44</ele>
        <time>2016-01-17T13:21:58Z</time>
      </trkpt>
      <trkpt lat="48.6677" lon="1.73761">
        <ele>174.67</ele>
        <time>2016-01-17T13:22:11Z</time>
      </trkpt>
      <trkpt lat="48.66789" lon="1.73767">
        <ele>168.16</ele>
        <time>2016-01-17T13:22:25Z</time>
      </trkpt>
      <trkpt lat="48.66807" lon="1.73776">
        <ele>168.71</ele>
        <time>2016-01-17T13:22:38Z</time>
      </trkpt>
      <trkpt lat="48.66815" lon="1.73751">
        <ele>159.55</ele>
        <time>2016-01-17T13:22:58Z</time>
      </trkpt>
      <trkpt lat="48.66831" lon="1.73735">
        <ele>160.98</ele>
        <time>2016-01-17T13:23:38Z</time>
      </trkpt>
      <trkpt lat="48.66846" lon="1.73718">
        <ele>153.6</ele>
        <time>2016-01-17T13:23:56Z</time>
      </trkpt>
      <trkpt lat="48.6686" lon="1.73697">
        <ele>158.52</ele>
        <time>2016-01-17T13:24:07Z</time>
      </trkpt>
      <trkpt lat="48.66874" lon="1.73679">
        <ele>172.29</ele>
        <time>2016-01-17T13:24:22Z</time>
      </trkpt>
      <trkpt lat="48.66885" lon="1.73657">
        <ele>163.32</ele>
        <time>2016-01-17T13:24:35Z</time>
      </trkpt>
      <trkpt lat="48.66901" lon="1.73644">
        <ele>161.37</ele>
        <time>2016-01-17T13:24:50Z</time>
      </trkpt>
      <trkpt lat="48.66916" lon="1.73628">
        <ele>156.75</ele>
        <time>2016-01-17T13:25:05Z</time>
      </trkpt>
      <trkpt lat="48.66931" lon="1.73612">
        <ele>160.71</ele>
        <time>2016-01-17T13:25:19Z</time>
      </trkpt>
      <trkpt lat="48.6694" lon="1.73586">
        <ele>165.49</ele>
        <time>2016-01-17T13:25:32Z</time>
      </trkpt>
      <trkpt lat="48.66956" lon="1.73571">
        <ele>161.74</ele>
        <time>2016-01-17T13:25:49Z</time>
      </trkpt>
      <trkpt lat="48.66974" lon="1.73563">
        <ele>164.69</ele>
        <time>2016-01-17T13:26:06Z</time>
      </trkpt>
      <trkpt lat="48.66988" lon="1.73544">
        <ele>170</ele>
        <time>2016-01-17T13:26:22Z</time>
      </trkpt>
      <trkpt lat="48.66999" lon="1.73522">
        <ele>164.78</ele>
        <time>2016-01-17T13:26:37Z</time>
      </trkpt>
      <trkpt lat="48.67012" lon="1.73502">
        <ele>170.74</ele>
        <time>2016-01-17T13:26:50Z</time>
      </trkpt>
      <trkpt lat="48.6703" lon="1.73497">
        <ele>161.75</ele>
        <time>2016-01-17T13:27:02Z</time>
      </trkpt>
      <trkpt lat="48.67049" lon="1.73494">
        <ele>165.39</ele>
        <time>2016-01-17T13:27:20Z</time>
      </trkpt>
      <trkpt lat="48.67051" lon="1.73467">
        <ele>160.72</ele>
        <time>2016-01-17T13:27:39Z</time>
      </trkpt>
      <trkpt lat="48.67055" lon="1.7344">
        <ele>153.99</ele>
        <time>2016-01-17T13:27:54Z</time>
      </trkpt>
      <trkpt lat="48.67068" lon="1.73421">
        <ele>156.66</ele>
        <time>2016-01-17T13:28:12Z</time>
      </trkpt>
      <trkpt lat="48.67079" lon="1.73442">
        <ele>158.79</ele>
        <time>2016-01-17T13:29:23Z</time>
      </trkpt>
      <trkpt lat="48.67095" lon="1.73429">
        <ele>161.61</ele>
        <time>2016-01-17T13:29:52Z</time>
      </trkpt>
      <trkpt lat="48.67113" lon="1.73437">
        <ele>148.36</ele>
        <time>2016-01-17T13:30:11Z</time>
      </trkpt>
      <trkpt lat="48.67132" lon="1.73441">
        <ele>152.95</ele>
        <time>2016-01-17T13:30:23Z</time>
      </trkpt>
      <trkpt lat="48.67145" lon="1.7342">
        <ele>148.05</ele>
        <time>2016-01-17T13:31:02Z</time>
      </trkpt>
      <trkpt lat="48.67163" lon="1.73412">
        <ele>147.03</ele>
        <time>2016-01-17T13:31:20Z</time>
      </trkpt>
      <trkpt lat="48.67164" lon="1.73385">
        <ele>141.94</ele>
        <time>2016-01-17T13:31:49Z</time>
      </trkpt>
      <trkpt lat="48.67151" lon="1.73365">
        <ele>130.73</ele>
        <time>2016-01-17T13:32:03Z</time>
      </trkpt>
      <trkpt lat="48.67134" lon="1.73351">
        <ele>131.5</ele>
        <time>2016-01-17T13:32:15Z</time>
      </trkpt>
      <trkpt lat="48.67117" lon="1.7334">
        <ele>128.75</ele>
        <time>2016-01-17T13:32:27Z</time>
      </trkpt>
      <trkpt lat="48.671" lon="1.73327">
        <ele>127.74</ele>
        <time>2016-01-17T13:32:40Z</time>
      </trkpt>
      <trkpt lat="48.67082" lon="1.73321">
        <ele>124.72</ele>
        <time>2016-01-17T13:32:53Z</time>
      </trkpt>
      <trkpt lat="48.67064" lon="1.73322">
        <ele>135.69</ele>
        <time>2016-01-17T13:33:09Z</time>
      </trkpt>
      <trkpt lat="48.6705" lon="1.73341">
        <ele>134.94</ele>
        <time>2016-01-17T13:33:24Z</time>
      </trkpt>
      <trkpt lat="48.67036" lon="1.7336">
        <ele>134.95</ele>
        <time>2016-01-17T13:33:40Z</time>
      </trkpt>
      <trkpt lat="48.67021" lon="1.73378">
        <ele>134.75</ele>
        <time>2016-01-17T13:33:53Z</time>
      </trkpt>
      <trkpt lat="48.67004" lon="1.7339">
        <ele>131.92</ele>
        <time>2016-01-17T13:34:04Z</time>
      </trkpt>
      <trkpt lat="48.66985" lon="1.73387">
        <ele>130.74</ele>
        <time>2016-01-17T13:34:23Z</time>
      </trkpt>
      <trkpt lat="48.66967" lon="1.73383">
        <ele>130.93</ele>
        <time>2016-01-17T13:34:36Z</time>
      </trkpt>
      <trkpt lat="48.66948" lon="1.73386">
        <ele>127.09</ele>
        <time>2016-01-17T13:34:51Z</time>
      </trkpt>
      <trkpt lat="48.66942" lon="1.7336">
        <ele>121.7</ele>
        <time>2016-01-17T13:35:04Z</time>
      </trkpt>
      <trkpt lat="48.66938" lon="1.73331">
        <ele>126.73</ele>
        <time>2016-01-17T13:35:17Z</time>
      </trkpt>
      <trkpt lat="48.66931" lon="1.73304">
        <ele>130.73</ele>
        <time>2016-01-17T13:35:29Z</time>
      </trkpt>
      <trkpt lat="48.66917" lon="1.73285">
        <ele>128.74</ele>
        <time>2016-01-17T13:35:44Z</time>
      </trkpt>
      <trkpt lat="48.669" lon="1.73273">
        <ele>129.7</ele>
        <time>2016-01-17T13:36:03Z</time>
      </trkpt>
      <trkpt lat="48.66881" lon="1.7327">
        <ele>129.71</ele>
        <time>2016-01-17T13:36:15Z</time>
      </trkpt>
      <trkpt lat="48.66863" lon="1.73275">
        <ele>128.69</ele>
        <time>2016-01-17T13:36:29Z</time>
      </trkpt>
      <trkpt lat="48.66845" lon="1.73267">
        <ele>133.59</ele>
        <time>2016-01-17T13:36:45Z</time>
      </trkpt>
      <trkpt lat="48.6683" lon="1.73248">
        <ele>134.58</ele>
        <time>2016-01-17T13:37:02Z</time>
      </trkpt>
      <trkpt lat="48.66815" lon="1.73231">
        <ele>129.79</ele>
        <time>2016-01-17T13:37:14Z</time>
      </trkpt>
      <trkpt lat="48.66799" lon="1.73218">
        <ele>133.85</ele>
        <time>2016-01-17T13:37:26Z</time>
      </trkpt>
      <trkpt lat="48.66782" lon="1.73206">
        <ele>136.74</ele>
        <time>2016-01-17T13:37:40Z</time>
      </trkpt>
      <trkpt lat="48.66766" lon="1.73194">
        <ele>134.99</ele>
        <time>2016-01-17T13:37:53Z</time>
      </trkpt>
      <trkpt lat="48.66749" lon="1.73183">
        <ele>134.76</ele>
        <time>2016-01-17T13:38:06Z</time>
      </trkpt>
      <trkpt lat="48.66732" lon="1.73173">
        <ele>130.48</ele>
        <time>2016-01-17T13:38:20Z</time>
      </trkpt>
      <trkpt lat="48.6672" lon="1.7315">
        <ele>129.77</ele>
        <time>2016-01-17T13:38:40Z</time>
      </trkpt>
      <trkpt lat="48.66715" lon="1.73122">
        <ele>128.77</ele>
        <time>2016-01-17T13:38:53Z</time>
      </trkpt>
      <trkpt lat="48.66713" lon="1.73093">
        <ele>128.54</ele>
        <time>2016-01-17T13:39:05Z</time>
      </trkpt>
      <trkpt lat="48.66725" lon="1.73073">
        <ele>126.59</ele>
        <time>2016-01-17T13:39:18Z</time>
      </trkpt>
      <trkpt lat="48.66739" lon="1.73055">
        <ele>125.38</ele>
        <time>2016-01-17T13:39:33Z</time>
      </trkpt>
      <trkpt lat="48.66751" lon="1.73033">
        <ele>124.32</ele>
        <time>2016-01-17T13:39:48Z</time>
      </trkpt>
      <trkpt lat="48.66764" lon="1.73013">
        <ele>125.32</ele>
        <time>2016-01-17T13:40:02Z</time>
      </trkpt>
      <trkpt lat="48.66776" lon="1.72992">
        <ele>129.37</ele>
        <time>2016-01-17T13:40:16Z</time>
      </trkpt>
      <trkpt lat="48.66787" lon="1.7297">
        <ele>132.8</ele>
        <time>2016-01-17T13:40:30Z</time>
      </trkpt>
      <trkpt lat="48.66802" lon="1.72954">
        <ele>134.59</ele>
        <time>2016-01-17T13:40:47Z</time>
      </trkpt>
      <trkpt lat="48.66814" lon="1.72933">
        <ele>142.69</ele>
        <time>2016-01-17T13:41:35Z</time>
      </trkpt>
      <trkpt lat="48.66828" lon="1.72917">
        <ele>136.3</ele>
        <time>2016-01-17T13:41:48Z</time>
      </trkpt>
      <trkpt lat="48.66841" lon="1.72896">
        <ele>134.55</ele>
        <time>2016-01-17T13:42:02Z</time>
      </trkpt>
      <trkpt lat="48.66851" lon="1.72872">
        <ele>133.55</ele>
        <time>2016-01-17T13:42:14Z</time>
      </trkpt>
      <trkpt lat="48.66864" lon="1.72849">
        <ele>140.54</ele>
        <time>2016-01-17T13:42:21Z</time>
      </trkpt>
      <trkpt lat="48.66851" lon="1.72828">
        <ele>136.99</ele>
        <time>2016-01-17T13:43:05Z</time>
      </trkpt>
      <trkpt lat="48.66842" lon="1.72804">
        <ele>135.41</ele>
        <time>2016-01-17T13:43:13Z</time>
      </trkpt>
      <trkpt lat="48.66835" lon="1.72778">
        <ele>127.54</ele>
        <time>2016-01-17T13:43:51Z</time>
      </trkpt>
      <trkpt lat="48.66829" lon="1.72751">
        <ele>118.91</ele>
        <time>2016-01-17T13:44:02Z</time>
      </trkpt>
      <trkpt lat="48.6682" lon="1.72724">
        <ele>118.54</ele>
        <time>2016-01-17T13:44:14Z</time>
      </trkpt>
      <trkpt lat="48.66814" lon="1.72698">
        <ele>126.69</ele>
        <time>2016-01-17T13:44:26Z</time>
      </trkpt>
      <trkpt lat="48.6681" lon="1.72668">
        <ele>129.86</ele>
        <time>2016-01-17T13:45:01Z</time>
      </trkpt>
      <trkpt lat="48.66802" lon="1.72643">
        <ele>134.7</ele>
        <time>2016-01-17T13:45:11Z</time>
      </trkpt>
      <trkpt lat="48.66793" lon="1.72619">
        <ele>132.19</ele>
        <time>2016-01-17T13:45:24Z</time>
      </trkpt>
      <trkpt lat="48.66787" lon="1.72593">
        <ele>136.66</ele>
        <time>2016-01-17T13:45:39Z</time>
      </trkpt>
      <trkpt lat="48.66776" lon="1.72571">
        <ele>139.54</ele>
        <time>2016-01-17T13:46:40Z</time>
      </trkpt>
      <trkpt lat="48.66758" lon="1.72577">
        <ele>141.89</ele>
        <time>2016-01-17T13:46:48Z</time>
      </trkpt>
      <trkpt lat="48.66742" lon="1.72589">
        <ele>142.34</ele>
        <time>2016-01-17T13:47:09Z</time>
      </trkpt>
      <trkpt lat="48.66729" lon="1.72608">
        <ele>132.39</ele>
        <time>2016-01-17T13:48:08Z</time>
      </trkpt>
      <trkpt lat="48.66713" lon="1.72625">
        <ele>127.58</ele>
        <time>2016-01-17T13:48:32Z</time>
      </trkpt>
      <trkpt lat="48.667" lon="1.72645">
        <ele>132.67</ele>
        <time>2016-01-17T13:48:50Z</time>
      </trkpt>
      <trkpt lat="48.66683" lon="1.72656">
        <ele>133.66</ele>
        <time>2016-01-17T13:49:10Z</time>
      </trkpt>
      <trkpt lat="48.66665" lon="1.72666">
        <ele>136.59</ele>
        <time>2016-01-17T13:49:30Z</time>
      </trkpt>
      <trkpt lat="48.66649" lon="1.72655">
        <ele>125.83</ele>
        <time>2016-01-17T13:50:42Z</time>
      </trkpt>
      <trkpt lat="48.6663" lon="1.72652">
        <ele>119.71</ele>
        <time>2016-01-17T13:51:00Z</time>
      </trkpt>
      <trkpt lat="48.66612" lon="1.72641">
        <ele>132.01</ele>
        <time>2016-01-17T13:52:33Z</time>
      </trkpt>
      <trkpt lat="48.66596" lon="1.72627">
        <ele>129.9</ele>
        <time>2016-01-17T13:52:45Z</time>
      </trkpt>
      <trkpt lat="48.66579" lon="1.72618">
        <ele>125.97</ele>
        <time>2016-01-17T13:53:02Z</time>
      </trkpt>
      <trkpt lat="48.66561" lon="1.72616">
        <ele>126.66</ele>
        <time>2016-01-17T13:53:36Z</time>
      </trkpt>
      <trkpt lat="48.66544" lon="1.72605">
        <ele>125.58</ele>
        <time>2016-01-17T13:53:52Z</time>
      </trkpt>
      <trkpt lat="48.66526" lon="1.72598">
        <ele>123.79</ele>
        <time>2016-01-17T13:54:08Z</time>
      </trkpt>
      <trkpt lat="48.66511" lon="1.72582">
        <ele>118.73</ele>
        <time>2016-01-17T13:55:19Z</time>
      </trkpt>
      <trkpt lat="48.66504" lon="1.72556">
        <ele>126.97</ele>
        <time>2016-01-17T13:55:34Z</time>
      </trkpt>
      <trkpt lat="48.66496" lon="1.72531">
        <ele>126.75</ele>
        <time>2016-01-17T13:55:54Z</time>
      </trkpt>
      <trkpt lat="48.6649" lon="1.72504">
        <ele>126.74</ele>
        <time>2016-01-17T13:56:11Z</time>
      </trkpt>
      <trkpt lat="48.66481" lon="1.7248">
        <ele>118.54</ele>
        <time>2016-01-17T13:57:37Z</time>
      </trkpt>
      <trkpt lat="48.66472" lon="1.72456">
        <ele>118.73</ele>
        <time>2016-01-17T13:58:19Z</time>
      </trkpt>
      <trkpt lat="48.66453" lon="1.72446">
        <ele>120.94</ele>
        <time>2016-01-17T13:58:41Z</time>
      </trkpt>
      <trkpt lat="48.66457" lon="1.72418">
        <ele>133.17</ele>
        <time>2016-01-17T13:59:00Z</time>
      </trkpt>
      <trkpt lat="48.66451" lon="1.72391">
        <ele>126.09</ele>
        <time>2016-01-17T13:59:20Z</time>
      </trkpt>
      <trkpt lat="48.66445" lon="1.72364">
        <ele>125.49</ele>
        <time>2016-01-17T14:00:05Z</time>
      </trkpt>
      <trkpt lat="48.66436" lon="1.72338">
        <ele>126.41</ele>
        <time>2016-01-17T14:00:47Z</time>
      </trkpt>
      <trkpt lat="48.66427" lon="1.72314">
        <ele>129.34</ele>
        <time>2016-01-17T14:00:59Z</time>
      </trkpt>
      <trkpt lat="48.66413" lon="1.72294">
        <ele>125.41</ele>
        <time>2016-01-17T14:01:13Z</time>
      </trkpt>
      <trkpt lat="48.66408" lon="1.72268">
        <ele>127.53</ele>
        <time>2016-01-17T14:01:29Z</time>
      </trkpt>
      <trkpt lat="48.66401" lon="1.72241">
        <ele>129.73</ele>
        <time>2016-01-17T14:01:43Z</time>
      </trkpt>
      <trkpt lat="48.66389" lon="1.72222">
        <ele>123.74</ele>
        <time>2016-01-17T14:03:47Z</time>
      </trkpt>
      <trkpt lat="48.66387" lon="1.72193">
        <ele>121.74</ele>
        <time>2016-01-17T14:04:10Z</time>
      </trkpt>
      <trkpt lat="48.66379" lon="1.72167">
        <ele>124.53</ele>
        <time>2016-01-17T14:04:24Z</time>
      </trkpt>
      <trkpt lat="48.66372" lon="1.7214">
        <ele>126.77</ele>
        <time>2016-01-17T14:04:39Z</time>
      </trkpt>
      <trkpt lat="48.66363" lon="1.72114">
        <ele>132.69</ele>
        <time>2016-01-17T14:04:52Z</time>
      </trkpt>
      <trkpt lat="48.66355" lon="1.72089">
        <ele>132.58</ele>
        <time>2016-01-17T14:05:11Z</time>
      </trkpt>
      <trkpt lat="48.66347" lon="1.72063">
        <ele>132.72</ele>
        <time>2016-01-17T14:05:28Z</time>
      </trkpt>
      <trkpt lat="48.66341" lon="1.72036">
        <ele>131.58</ele>
        <time>2016-01-17T14:05:44Z</time>
      </trkpt>
      <trkpt lat="48.66329" lon="1.72015">
        <ele>121.8</ele>
        <time>2016-01-17T14:05:58Z</time>
      </trkpt>
      <trkpt lat="48.66325" lon="1.71988">
        <ele>122.18</ele>
        <time>2016-01-17T14:06:16Z</time>
      </trkpt>
      <trkpt lat="48.66314" lon="1.71964">
        <ele>121.59</ele>
        <time>2016-01-17T14:06:32Z</time>
      </trkpt>
      <trkpt lat="48.66306" lon="1.71939">
        <ele>127.77</ele>
        <time>2016-01-17T14:06:46Z</time>
      </trkpt>
      <trkpt lat="48.66296" lon="1.71917">
        <ele>126.7</ele>
        <time>2016-01-17T14:06:58Z</time>
      </trkpt>
      <trkpt lat="48.6629" lon="1.71891">
        <ele>125.6</ele>
        <time>2016-01-17T14:07:13Z</time>
      </trkpt>
      <trkpt lat="48.66291" lon="1.71863">
        <ele>126.95</ele>
        <time>2016-01-17T14:07:29Z</time>
      </trkpt>
      <trkpt lat="48.66308" lon="1.71853">
        <ele>124.74</ele>
        <time>2016-01-17T14:07:42Z</time>
      </trkpt>
      <trkpt lat="48.66325" lon="1.7184">
        <ele>124.73</ele>
        <time>2016-01-17T14:07:56Z</time>
      </trkpt>
      <trkpt lat="48.66344" lon="1.71834">
        <ele>125.69</ele>
        <time>2016-01-17T14:08:10Z</time>
      </trkpt>
      <trkpt lat="48.66363" lon="1.71829">
        <ele>125.75</ele>
        <time>2016-01-17T14:08:24Z</time>
      </trkpt>
      <trkpt lat="48.6638" lon="1.71821">
        <ele>123.54</ele>
        <time>2016-01-17T14:08:47Z</time>
      </trkpt>
      <trkpt lat="48.66398" lon="1.71812">
        <ele>124.5</ele>
        <time>2016-01-17T14:09:04Z</time>
      </trkpt>
      <trkpt lat="48.66414" lon="1.71801">
        <ele>126.7</ele>
        <time>2016-01-17T14:09:15Z</time>
      </trkpt>
      <trkpt lat="48.66433" lon="1.71794">
        <ele>128.46</ele>
        <time>2016-01-17T14:09:29Z</time>
      </trkpt>
      <trkpt lat="48.66451" lon="1.71787">
        <ele>127.54</ele>
        <time>2016-01-17T14:09:38Z</time>
      </trkpt>
      <trkpt lat="48.66471" lon="1.7178">
        <ele>126.94</ele>
        <time>2016-01-17T14:09:48Z</time>
      </trkpt>
      <trkpt lat="48.6649" lon="1.71775">
        <ele>126.67</ele>
        <time>2016-01-17T14:10:05Z</time>
      </trkpt>
      <trkpt lat="48.66508" lon="1.71768">
        <ele>123.59</ele>
        <time>2016-01-17T14:10:21Z</time>
      </trkpt>
      <trkpt lat="48.66526" lon="1.7176">
        <ele>123.34</ele>
        <time>2016-01-17T14:10:31Z</time>
      </trkpt>
      <trkpt lat="48.66544" lon="1.71753">
        <ele>122.53</ele>
        <time>2016-01-17T14:10:46Z</time>
      </trkpt>
      <trkpt lat="48.66562" lon="1.71746">
        <ele>123.54</ele>
        <time>2016-01-17T14:11:00Z</time>
      </trkpt>
      <trkpt lat="48.66581" lon="1.71737">
        <ele>130.91</ele>
        <time>2016-01-17T14:11:15Z</time>
      </trkpt>
      <trkpt lat="48.66598" lon="1.7173">
        <ele>128.74</ele>
        <time>2016-01-17T14:11:29Z</time>
      </trkpt>
      <trkpt lat="48.66615" lon="1.7172">
        <ele>129.59</ele>
        <time>2016-01-17T14:11:50Z</time>
      </trkpt>
      <trkpt lat="48.66633" lon="1.71711">
        <ele>130.74</ele>
        <time>2016-01-17T14:12:05Z</time>
      </trkpt>
      <trkpt lat="48.66651" lon="1.71705">
        <ele>133.48</ele>
        <time>2016-01-17T14:12:27Z</time>
      </trkpt>
      <trkpt lat="48.66669" lon="1.71709">
        <ele>135.94</ele>
        <time>2016-01-17T14:12:41Z</time>
      </trkpt>
    </trkseg>
  </trk>
</gpx>